Maysville, Kentucky
Current Conditions -  °F | °C
As of 2:55 PM on Tuesday 21 Oct 2014 (Local Time) from KFGX Reporting Station
Overcast Overcast  
Wind Chill: 53°   Ceiling: 4800
Heat Index: 53°   Visibility: 10mi
Dew Point: 40°   Wind: 9mph
Humidity: 61%   Direction: 340°NNW
Pressure: 30.04"   Gusts: 16mph
Location:  38.64°N, 83.76°W
Report Text: KFGX 211855Z AUTO 34008G14KT 10SM SCT036 OVC048 11/04 A3004 RMK AO2 T01140042
Loading
Personal Weather Stations






























Interactive Weather Map
Tropical Storm Tracking
New forecast layout! Learn more

10-Day Weather Forecast

Advertisements
Track Severe Weather on mobile